X  Schlie├čen METAR Luftfahrt Wetterdaten     EDDM Munich Airport
Temperatur
15°C Temperatur
10°C Taupunkt
72% Feuchtigkeit



Wind
3 km/h
2 MPS
1 m/s
2 Ktn



30°
NNO
Aktuelle Wetterlage

Klar Klar
Luftdruck 1017.92 (hPa) - 30.06 (inchHg)
Sichtweite 6.2 (Meile) - 10 (Km)
Flughafen
Flughafen Code EDDM

Position : Munich Airport
Entfernung: 73 (Km)

Metar:
EDDM 291950Z AUTO 03002KT CAVOK 15/10 Q1018 NOSIG

Zeit: 29-05-2023 19:50 CEST